sensor_id;sensor_type;location;lat;lon;timestamp;pressure;altitude;pressure_sealevel;temperature;humidity
52693;BME280;68218;51.012;-1.648;2023-03-15T00:00:44;100533.41;;;1.38;90.83
52693;BME280;68218;51.012;-1.648;2023-03-15T00:03:10;100534.59;;;1.35;91.18
52693;BME280;68218;51.012;-1.648;2023-03-15T00:05:36;100534.84;;;1.40;91.25
52693;BME280;68218;51.012;-1.648;2023-03-15T00:08:02;100530.75;;;1.38;91.14
52693;BME280;68218;51.012;-1.648;2023-03-15T00:10:28;100521.94;;;1.30;90.63
52693;BME280;68218;51.012;-1.648;2023-03-15T00:12:54;100535.22;;;1.30;90.62
52693;BME280;68218;51.012;-1.648;2023-03-15T00:15:20;100545.19;;;1.28;90.71
52693;BME280;68218;51.012;-1.648;2023-03-15T00:17:45;100553.13;;;1.22;90.47
52693;BME280;68218;51.012;-1.648;2023-03-15T00:20:12;100549.81;;;1.20;90.87
52693;BME280;68218;51.012;-1.648;2023-03-15T00:22:40;100549.59;;;1.15;91.07
52693;BME280;68218;51.012;-1.648;2023-03-15T00:25:06;100552.66;;;1.18;90.64
52693;BME280;68218;51.012;-1.648;2023-03-15T00:27:31;100563.28;;;1.18;91.57
52693;BME280;68218;51.012;-1.648;2023-03-15T00:29:57;100556.34;;;1.17;92.90
52693;BME280;68218;51.012;-1.648;2023-03-15T00:32:22;100550.66;;;1.20;93.87
52693;BME280;68218;51.012;-1.648;2023-03-15T00:34:48;100540.66;;;1.22;93.84
52693;BME280;68218;51.012;-1.648;2023-03-15T00:37:16;100542.09;;;1.25;93.74
52693;BME280;68218;51.012;-1.648;2023-03-15T00:39:47;100555.19;;;1.26;93.41
52693;BME280;68218;51.012;-1.648;2023-03-15T00:42:13;100568.72;;;1.31;93.32
52693;BME280;68218;51.012;-1.648;2023-03-15T00:44:43;100574.91;;;1.39;93.86
52693;BME280;68218;51.012;-1.648;2023-03-15T00:47:10;100574.50;;;1.42;94.11
52693;BME280;68218;51.012;-1.648;2023-03-15T00:49:36;100567.56;;;1.41;94.44
52693;BME280;68218;51.012;-1.648;2023-03-15T00:52:02;100562.84;;;1.36;94.48
52693;BME280;68218;51.012;-1.648;2023-03-15T00:54:27;100570.63;;;1.38;94.51
52693;BME280;68218;51.012;-1.648;2023-03-15T00:56:53;100568.56;;;1.40;94.43
52693;BME280;68218;51.012;-1.648;2023-03-15T00:59:18;100568.56;;;1.40;94.71
52693;BME280;68218;51.012;-1.648;2023-03-15T01:01:44;100573.50;;;1.43;94.54
52693;BME280;68218;51.012;-1.648;2023-03-15T01:04:10;100560.59;;;1.40;94.31
52693;BME280;68218;51.012;-1.648;2023-03-15T01:06:38;100561.41;;;1.40;94.63
52693;BME280;68218;51.012;-1.648;2023-03-15T01:09:07;100568.44;;;1.48;94.40
52693;BME280;68218;51.012;-1.648;2023-03-15T01:11:33;100567.81;;;1.46;94.02
52693;BME280;68218;51.012;-1.648;2023-03-15T01:13:59;100569.88;;;1.50;94.10
52693;BME280;68218;51.012;-1.648;2023-03-15T01:16:26;100570.47;;;1.46;93.95
52693;BME280;68218;51.012;-1.648;2023-03-15T01:18:52;100569.63;;;1.45;93.93
52693;BME280;68218;51.012;-1.648;2023-03-15T01:21:18;100576.16;;;1.43;94.20
52693;BME280;68218;51.012;-1.648;2023-03-15T01:23:45;100584.31;;;1.41;93.61
52693;BME280;68218;51.012;-1.648;2023-03-15T01:26:13;100581.06;;;1.39;93.80
52693;BME280;68218;51.012;-1.648;2023-03-15T01:28:39;100594.78;;;1.43;93.92
52693;BME280;68218;51.012;-1.648;2023-03-15T01:31:04;100586.56;;;1.38;94.03
52693;BME280;68218;51.012;-1.648;2023-03-15T01:33:30;100586.56;;;1.38;94.09
52693;BME280;68218;51.012;-1.648;2023-03-15T01:36:04;100587.31;;;1.31;94.57
52693;BME280;68218;51.012;-1.648;2023-03-15T01:38:31;100593.91;;;1.36;94.19
52693;BME280;68218;51.012;-1.648;2023-03-15T01:40:57;100603.63;;;1.28;94.07
52693;BME280;68218;51.012;-1.648;2023-03-15T01:43:27;100607.75;;;1.31;93.91
52693;BME280;68218;51.012;-1.648;2023-03-15T01:48:23;100620.97;;;1.24;94.09
52693;BME280;68218;51.012;-1.648;2023-03-15T01:50:50;100619.72;;;1.20;94.10
52693;BME280;68218;51.012;-1.648;2023-03-15T01:53:21;100617.44;;;1.17;93.99
52693;BME280;68218;51.012;-1.648;2023-03-15T01:55:47;100608.84;;;1.15;93.98
52693;BME280;68218;51.012;-1.648;2023-03-15T01:58:13;100610.91;;;1.20;94.82
52693;BME280;68218;51.012;-1.648;2023-03-15T02:00:39;100604.22;;;1.24;94.72
52693;BME280;68218;51.012;-1.648;2023-03-15T02:03:11;100612.75;;;1.19;94.51
52693;BME280;68218;51.012;-1.648;2023-03-15T02:05:45;100621.72;;;1.18;94.19
52693;BME280;68218;51.012;-1.648;2023-03-15T02:08:15;100607.22;;;1.14;93.62
52693;BME280;68218;51.012;-1.648;2023-03-15T02:10:45;100604.50;;;1.07;93.13
52693;BME280;68218;51.012;-1.648;2023-03-15T02:13:14;100602.63;;;1.01;93.11
52693;BME280;68218;51.012;-1.648;2023-03-15T02:15:41;100607.25;;;0.99;92.72
52693;BME280;68218;51.012;-1.648;2023-03-15T02:18:11;100608.03;;;0.93;93.24
52693;BME280;68218;51.012;-1.648;2023-03-15T02:23:12;100609.59;;;0.87;93.69
52693;BME280;68218;51.012;-1.648;2023-03-15T02:28:40;100610.81;;;0.85;93.30
52693;BME280;68218;51.012;-1.648;2023-03-15T02:31:06;100612.66;;;0.84;93.85
52693;BME280;68218;51.012;-1.648;2023-03-15T02:33:42;100619.34;;;0.80;93.82
52693;BME280;68218;51.012;-1.648;2023-03-15T02:36:26;100616.06;;;0.78;93.68
52693;BME280;68218;51.012;-1.648;2023-03-15T02:38:52;100625.03;;;0.77;93.68
52693;BME280;68218;51.012;-1.648;2023-03-15T02:41:23;100623.75;;;0.73;93.68
52693;BME280;68218;51.012;-1.648;2023-03-15T02:43:54;100627.22;;;0.73;93.51
52693;BME280;68218;51.012;-1.648;2023-03-15T02:46:21;100632.28;;;0.68;93.60
52693;BME280;68218;51.012;-1.648;2023-03-15T02:48:47;100625.34;;;0.67;93.75
52693;BME280;68218;51.012;-1.648;2023-03-15T02:51:22;100625.72;;;0.64;93.62
52693;BME280;68218;51.012;-1.648;2023-03-15T02:53:48;100623.06;;;0.64;94.34
52693;BME280;68218;51.012;-1.648;2023-03-15T02:56:14;100621.22;;;0.65;94.47
52693;BME280;68218;51.012;-1.648;2023-03-15T02:58:40;100620.22;;;0.66;94.50
52693;BME280;68218;51.012;-1.648;2023-03-15T03:01:05;100627.41;;;0.72;94.96
52693;BME280;68218;51.012;-1.648;2023-03-15T03:03:32;100614.16;;;0.72;95.15
52693;BME280;68218;51.012;-1.648;2023-03-15T03:05:58;100612.72;;;0.69;95.21
52693;BME280;68218;51.012;-1.648;2023-03-15T03:08:23;100611.38;;;0.59;95.60
52693;BME280;68218;51.012;-1.648;2023-03-15T03:10:48;100602.81;;;0.63;95.75
52693;BME280;68218;51.012;-1.648;2023-03-15T03:13:14;100622.00;;;0.59;95.68
52693;BME280;68218;51.012;-1.648;2023-03-15T03:15:39;100626.44;;;0.58;95.17
52693;BME280;68218;51.012;-1.648;2023-03-15T03:18:10;100626.00;;;0.54;94.75
52693;BME280;68218;51.012;-1.648;2023-03-15T03:20:35;100627.94;;;0.46;95.05
52693;BME280;68218;51.012;-1.648;2023-03-15T03:23:01;100633.34;;;0.37;95.58
52693;BME280;68218;51.012;-1.648;2023-03-15T03:25:30;100652.59;;;0.40;95.46
52693;BME280;68218;51.012;-1.648;2023-03-15T03:27:56;100651.66;;;0.32;96.12
52693;BME280;68218;51.012;-1.648;2023-03-15T03:30:22;100646.09;;;0.27;96.48
52693;BME280;68218;51.012;-1.648;2023-03-15T03:32:48;100652.31;;;0.20;96.92
52693;BME280;68218;51.012;-1.648;2023-03-15T03:35:13;100659.06;;;0.22;97.50
52693;BME280;68218;51.012;-1.648;2023-03-15T03:37:38;100658.25;;;0.22;97.27
52693;BME280;68218;51.012;-1.648;2023-03-15T03:40:04;100665.59;;;0.20;97.45
52693;BME280;68218;51.012;-1.648;2023-03-15T03:42:32;100663.28;;;0.16;96.88
52693;BME280;68218;51.012;-1.648;2023-03-15T03:44:58;100665.13;;;0.16;96.36
52693;BME280;68218;51.012;-1.648;2023-03-15T03:47:23;100664.50;;;0.14;96.09
52693;BME280;68218;51.012;-1.648;2023-03-15T03:49:49;100661.09;;;0.20;95.78
52693;BME280;68218;51.012;-1.648;2023-03-15T03:52:14;100669.22;;;0.18;96.11
52693;BME280;68218;51.012;-1.648;2023-03-15T03:54:40;100660.00;;;0.14;96.19
52693;BME280;68218;51.012;-1.648;2023-03-15T03:57:07;100663.28;;;0.16;96.43
52693;BME280;68218;51.012;-1.648;2023-03-15T03:59:32;100663.84;;;0.12;95.79
52693;BME280;68218;51.012;-1.648;2023-03-15T04:01:58;100669.53;;;0.09;95.44
52693;BME280;68218;51.012;-1.648;2023-03-15T04:04:23;100669.88;;;0.06;95.08
52693;BME280;68218;51.012;-1.648;2023-03-15T04:06:50;100661.66;;;0.01;94.90
52693;BME280;68218;51.012;-1.648;2023-03-15T04:09:16;100660.19;;;-0.02;94.50
52693;BME280;68218;51.012;-1.648;2023-03-15T04:11:42;100651.94;;;-0.07;94.64
52693;BME280;68218;51.012;-1.648;2023-03-15T04:14:11;100658.09;;;0.08;94.94
52693;BME280;68218;51.012;-1.648;2023-03-15T04:16:37;100660.94;;;-0.08;95.49
52693;BME280;68218;51.012;-1.648;2023-03-15T04:19:03;100663.94;;;-0.11;95.13
52693;BME280;68218;51.012;-1.648;2023-03-15T04:21:29;100669.59;;;-0.14;94.96
52693;BME280;68218;51.012;-1.648;2023-03-15T04:23:58;100665.66;;;-0.18;95.17
52693;BME280;68218;51.012;-1.648;2023-03-15T04:26:24;100664.38;;;-0.23;94.83
52693;BME280;68218;51.012;-1.648;2023-03-15T04:28:55;100668.03;;;-0.24;95.07
52693;BME280;68218;51.012;-1.648;2023-03-15T04:31:22;100667.41;;;-0.26;95.05
52693;BME280;68218;51.012;-1.648;2023-03-15T04:33:54;100658.16;;;-0.30;95.15
52693;BME280;68218;51.012;-1.648;2023-03-15T04:36:23;100669.22;;;-0.41;95.07
52693;BME280;68218;51.012;-1.648;2023-03-15T04:38:49;100671.91;;;-0.49;95.24
52693;BME280;68218;51.012;-1.648;2023-03-15T04:41:16;100679.75;;;-0.56;95.90
52693;BME280;68218;51.012;-1.648;2023-03-15T04:43:42;100682.63;;;-0.66;96.20
52693;BME280;68218;51.012;-1.648;2023-03-15T04:46:07;100677.34;;;-0.66;96.57
52693;BME280;68218;51.012;-1.648;2023-03-15T04:48:34;100672.34;;;-0.61;97.14
52693;BME280;68218;51.012;-1.648;2023-03-15T04:50:59;100676.19;;;-0.48;97.48
52693;BME280;68218;51.012;-1.648;2023-03-15T04:53:25;100670.25;;;-0.50;97.30
52693;BME280;68218;51.012;-1.648;2023-03-15T04:55:50;100676.66;;;-0.45;97.36
52693;BME280;68218;51.012;-1.648;2023-03-15T04:58:17;100667.09;;;-0.46;96.67
52693;BME280;68218;51.012;-1.648;2023-03-15T05:00:42;100683.69;;;-0.52;96.25
52693;BME280;68218;51.012;-1.648;2023-03-15T05:03:08;100680.56;;;-0.55;96.02
52693;BME280;68218;51.012;-1.648;2023-03-15T05:05:33;100680.34;;;-0.69;96.11
52693;BME280;68218;51.012;-1.648;2023-03-15T05:07:59;100679.34;;;-0.91;95.95
52693;BME280;68218;51.012;-1.648;2023-03-15T05:10:25;100679.59;;;-1.01;96.76
52693;BME280;68218;51.012;-1.648;2023-03-15T05:12:51;100675.81;;;-1.06;97.45
52693;BME280;68218;51.012;-1.648;2023-03-15T05:15:17;100668.66;;;-0.98;98.60
52693;BME280;68218;51.012;-1.648;2023-03-15T05:17:43;100669.59;;;-0.90;99.13
52693;BME280;68218;51.012;-1.648;2023-03-15T05:20:11;100668.34;;;-0.80;99.72
52693;BME280;68218;51.012;-1.648;2023-03-15T05:22:38;100668.13;;;-0.70;99.96
52693;BME280;68218;51.012;-1.648;2023-03-15T05:25:04;100667.56;;;-0.65;99.78
52693;BME280;68218;51.012;-1.648;2023-03-15T05:27:29;100667.69;;;-0.59;99.86
52693;BME280;68218;51.012;-1.648;2023-03-15T05:29:56;100669.16;;;-0.56;99.46
52693;BME280;68218;51.012;-1.648;2023-03-15T05:32:22;100679.69;;;-0.48;99.35
52693;BME280;68218;51.012;-1.648;2023-03-15T05:34:51;100686.44;;;-0.45;99.01
52693;BME280;68218;51.012;-1.648;2023-03-15T05:37:21;100689.56;;;-0.42;98.93
52693;BME280;68218;51.012;-1.648;2023-03-15T05:39:47;100689.84;;;-0.36;98.73
52693;BME280;68218;51.012;-1.648;2023-03-15T05:42:13;100693.97;;;-0.34;98.59
52693;BME280;68218;51.012;-1.648;2023-03-15T05:44:38;100697.91;;;-0.30;98.44
52693;BME280;68218;51.012;-1.648;2023-03-15T05:47:04;100693.06;;;-0.26;98.28
52693;BME280;68218;51.012;-1.648;2023-03-15T05:49:30;100704.22;;;-0.31;97.89
52693;BME280;68218;51.012;-1.648;2023-03-15T05:51:55;100707.69;;;-0.30;97.89
52693;BME280;68218;51.012;-1.648;2023-03-15T05:54:21;100713.00;;;-0.30;97.54
52693;BME280;68218;51.012;-1.648;2023-03-15T05:56:46;100714.81;;;-0.31;97.43
52693;BME280;68218;51.012;-1.648;2023-03-15T05:59:12;100716.38;;;-0.22;98.15
52693;BME280;68218;51.012;-1.648;2023-03-15T06:01:37;100714.72;;;-0.23;97.52
52693;BME280;68218;51.012;-1.648;2023-03-15T06:04:03;100708.63;;;-0.23;97.57
52693;BME280;68218;51.012;-1.648;2023-03-15T06:06:28;100711.63;;;-0.26;97.08
52693;BME280;68218;51.012;-1.648;2023-03-15T06:08:57;100713.81;;;-0.30;97.44
52693;BME280;68218;51.012;-1.648;2023-03-15T06:11:23;100721.97;;;-0.54;96.75
52693;BME280;68218;51.012;-1.648;2023-03-15T06:13:48;100724.28;;;-0.83;96.13
52693;BME280;68218;51.012;-1.648;2023-03-15T06:16:14;100720.66;;;-0.82;96.71
52693;BME280;68218;51.012;-1.648;2023-03-15T06:18:39;100726.44;;;-0.78;96.63
52693;BME280;68218;51.012;-1.648;2023-03-15T06:21:05;100720.41;;;-0.95;96.75
52693;BME280;68218;51.012;-1.648;2023-03-15T06:23:30;100726.53;;;-0.95;97.23
52693;BME280;68218;51.012;-1.648;2023-03-15T06:25:55;100729.47;;;-0.89;97.46
52693;BME280;68218;51.012;-1.648;2023-03-15T06:28:21;100728.25;;;-0.79;97.42
52693;BME280;68218;51.012;-1.648;2023-03-15T06:30:46;100735.72;;;-0.82;97.36
52693;BME280;68218;51.012;-1.648;2023-03-15T06:33:12;100734.38;;;-0.78;97.56
52693;BME280;68218;51.012;-1.648;2023-03-15T06:35:37;100732.06;;;-0.81;97.50
52693;BME280;68218;51.012;-1.648;2023-03-15T06:38:03;100739.97;;;-0.73;97.47
52693;BME280;68218;51.012;-1.648;2023-03-15T06:40:29;100736.97;;;-0.70;97.80
52693;BME280;68218;51.012;-1.648;2023-03-15T06:42:54;100736.53;;;-0.59;97.21
52693;BME280;68218;51.012;-1.648;2023-03-15T06:45:21;100748.00;;;-0.58;97.26
52693;BME280;68218;51.012;-1.648;2023-03-15T06:47:46;100748.47;;;-0.54;97.05
52693;BME280;68218;51.012;-1.648;2023-03-15T06:50:12;100745.81;;;-0.54;97.25
52693;BME280;68218;51.012;-1.648;2023-03-15T06:52:38;100744.66;;;-0.60;97.47
52693;BME280;68218;51.012;-1.648;2023-03-15T06:55:04;100753.16;;;-0.65;97.45
52693;BME280;68218;51.012;-1.648;2023-03-15T06:57:29;100751.44;;;-0.58;97.57
52693;BME280;68218;51.012;-1.648;2023-03-15T06:59:54;100752.72;;;-0.53;97.46
52693;BME280;68218;51.012;-1.648;2023-03-15T07:02:21;100764.03;;;-0.36;97.46
52693;BME280;68218;51.012;-1.648;2023-03-15T07:04:46;100749.84;;;-0.44;97.08
52693;BME280;68218;51.012;-1.648;2023-03-15T07:07:12;100759.38;;;-0.34;97.12
52693;BME280;68218;51.012;-1.648;2023-03-15T07:09:38;100752.97;;;-0.40;96.70
52693;BME280;68218;51.012;-1.648;2023-03-15T07:12:04;100747.91;;;-0.27;97.29
52693;BME280;68218;51.012;-1.648;2023-03-15T07:14:30;100752.50;;;-0.21;97.07
52693;BME280;68218;51.012;-1.648;2023-03-15T07:16:57;100767.56;;;-0.21;97.61
52693;BME280;68218;51.012;-1.648;2023-03-15T07:19:22;100769.69;;;-0.16;97.35
52693;BME280;68218;51.012;-1.648;2023-03-15T07:21:48;100771.25;;;-0.07;97.38
52693;BME280;68218;51.012;-1.648;2023-03-15T07:24:13;100771.28;;;0.08;97.63
52693;BME280;68218;51.012;-1.648;2023-03-15T07:26:39;100767.66;;;0.24;97.34
52693;BME280;68218;51.012;-1.648;2023-03-15T07:29:04;100762.91;;;0.34;97.12
52693;BME280;68218;51.012;-1.648;2023-03-15T07:31:30;100761.91;;;0.50;97.25
52693;BME280;68218;51.012;-1.648;2023-03-15T07:33:56;100767.28;;;0.56;97.20
52693;BME280;68218;51.012;-1.648;2023-03-15T07:36:21;100764.19;;;0.68;96.83
52693;BME280;68218;51.012;-1.648;2023-03-15T07:38:47;100764.63;;;0.71;96.86
52693;BME280;68218;51.012;-1.648;2023-03-15T07:41:12;100770.13;;;0.40;96.15
52693;BME280;68218;51.012;-1.648;2023-03-15T07:43:38;100776.53;;;0.61;96.49
52693;BME280;68218;51.012;-1.648;2023-03-15T07:46:03;100775.25;;;0.71;96.23
52693;BME280;68218;51.012;-1.648;2023-03-15T07:48:30;100772.75;;;1.00;96.00
52693;BME280;68218;51.012;-1.648;2023-03-15T07:50:55;100786.66;;;1.02;95.19
52693;BME280;68218;51.012;-1.648;2023-03-15T07:53:21;100779.50;;;1.17;94.92
52693;BME280;68218;51.012;-1.648;2023-03-15T07:55:47;100781.59;;;1.22;94.70
52693;BME280;68218;51.012;-1.648;2023-03-15T07:58:13;100760.13;;;1.23;94.29
52693;BME280;68218;51.012;-1.648;2023-03-15T08:00:39;100770.56;;;1.25;95.06
52693;BME280;68218;51.012;-1.648;2023-03-15T08:03:05;100766.13;;;1.10;95.20
52693;BME280;68218;51.012;-1.648;2023-03-15T08:05:32;100753.00;;;1.24;95.54
52693;BME280;68218;51.012;-1.648;2023-03-15T08:07:58;100756.88;;;1.43;94.98
52693;BME280;68218;51.012;-1.648;2023-03-15T08:10:24;100758.38;;;1.30;95.85
52693;BME280;68218;51.012;-1.648;2023-03-15T08:12:49;100751.41;;;1.29;95.65
52693;BME280;68218;51.012;-1.648;2023-03-15T08:15:15;100757.72;;;1.28;95.34
52693;BME280;68218;51.012;-1.648;2023-03-15T08:17:41;100765.22;;;1.40;95.90
52693;BME280;68218;51.012;-1.648;2023-03-15T08:20:08;100762.56;;;1.40;95.71
52693;BME280;68218;51.012;-1.648;2023-03-15T08:22:36;100758.31;;;1.67;95.12
52693;BME280;68218;51.012;-1.648;2023-03-15T08:25:03;100764.34;;;1.76;94.76
52693;BME280;68218;51.012;-1.648;2023-03-15T08:27:29;100764.38;;;1.82;94.54
52693;BME280;68218;51.012;-1.648;2023-03-15T08:29:54;100759.75;;;1.91;94.16
52693;BME280;68218;51.012;-1.648;2023-03-15T08:32:20;100759.56;;;1.93;94.08
52693;BME280;68218;51.012;-1.648;2023-03-15T08:34:46;100755.41;;;2.12;93.84
52693;BME280;68218;51.012;-1.648;2023-03-15T08:37:11;100764.38;;;2.04;93.64
52693;BME280;68218;51.012;-1.648;2023-03-15T08:39:37;100771.03;;;2.21;93.48
52693;BME280;68218;51.012;-1.648;2023-03-15T08:42:03;100760.91;;;2.10;93.73
52693;BME280;68218;51.012;-1.648;2023-03-15T08:44:29;100762.44;;;2.19;94.32
52693;BME280;68218;51.012;-1.648;2023-03-15T08:46:55;100759.97;;;2.18;94.36
52693;BME280;68218;51.012;-1.648;2023-03-15T08:49:20;100762.13;;;2.36;93.76
52693;BME280;68218;51.012;-1.648;2023-03-15T08:51:46;100764.50;;;2.24;93.92
52693;BME280;68218;51.012;-1.648;2023-03-15T08:54:11;100760.34;;;2.15;93.84
52693;BME280;68218;51.012;-1.648;2023-03-15T08:56:38;100762.78;;;2.44;93.73
52693;BME280;68218;51.012;-1.648;2023-03-15T08:59:05;100762.00;;;2.51;93.55
52693;BME280;68218;51.012;-1.648;2023-03-15T09:01:30;100762.06;;;2.57;93.48
52693;BME280;68218;51.012;-1.648;2023-03-15T09:03:56;100761.53;;;2.82;93.48
52693;BME280;68218;51.012;-1.648;2023-03-15T09:06:21;100760.97;;;2.87;92.84
52693;BME280;68218;51.012;-1.648;2023-03-15T09:08:47;100755.22;;;2.83;93.27
52693;BME280;68218;51.012;-1.648;2023-03-15T09:11:12;100755.47;;;2.95;92.32
52693;BME280;68218;51.012;-1.648;2023-03-15T09:13:38;100757.13;;;3.09;91.92
52693;BME280;68218;51.012;-1.648;2023-03-15T09:16:03;100758.97;;;3.02;91.89
52693;BME280;68218;51.012;-1.648;2023-03-15T09:18:29;100764.47;;;2.94;91.89
52693;BME280;68218;51.012;-1.648;2023-03-15T09:20:55;100758.56;;;3.05;91.76
52693;BME280;68218;51.012;-1.648;2023-03-15T09:23:20;100768.47;;;3.25;90.87
52693;BME280;68218;51.012;-1.648;2023-03-15T09:25:45;100763.97;;;3.32;90.81
52693;BME280;68218;51.012;-1.648;2023-03-15T09:28:11;100765.66;;;3.46;89.12
52693;BME280;68218;51.012;-1.648;2023-03-15T09:30:38;100758.03;;;3.30;90.11
52693;BME280;68218;51.012;-1.648;2023-03-15T09:33:04;100757.03;;;3.51;88.70
52693;BME280;68218;51.012;-1.648;2023-03-15T09:35:30;100758.28;;;3.55;88.71
52693;BME280;68218;51.012;-1.648;2023-03-15T09:37:55;100765.06;;;3.84;87.48
52693;BME280;68218;51.012;-1.648;2023-03-15T09:40:24;100759.31;;;3.67;87.38
52693;BME280;68218;51.012;-1.648;2023-03-15T09:50:53;100767.34;;;3.81;85.38
52693;BME280;68218;51.012;-1.648;2023-03-15T09:53:27;100768.34;;;3.93;86.45
52693;BME280;68218;51.012;-1.648;2023-03-15T09:55:53;100767.94;;;4.03;84.35
52693;BME280;68218;51.012;-1.648;2023-03-15T09:58:23;100770.63;;;4.03;85.29
52693;BME280;68218;51.012;-1.648;2023-03-15T10:00:58;100774.72;;;4.19;84.89
52693;BME280;68218;51.012;-1.648;2023-03-15T10:03:45;100781.66;;;4.20;85.15
52693;BME280;68218;51.012;-1.648;2023-03-15T10:06:19;100772.63;;;4.34;82.83
52693;BME280;68218;51.012;-1.648;2023-03-15T10:08:45;100783.47;;;4.59;83.47
52693;BME280;68218;51.012;-1.648;2023-03-15T10:11:28;100786.78;;;4.48;83.38
52693;BME280;68218;51.012;-1.648;2023-03-15T10:14:29;100783.88;;;4.56;83.63
52693;BME280;68218;51.012;-1.648;2023-03-15T10:17:07;100776.50;;;4.45;83.14
52693;BME280;68218;51.012;-1.648;2023-03-15T10:19:53;100787.19;;;4.52;83.56
52693;BME280;68218;51.012;-1.648;2023-03-15T10:22:55;100784.28;;;4.66;81.97
52693;BME280;68218;51.012;-1.648;2023-03-15T10:25:25;100778.53;;;4.69;82.85
52693;BME280;68218;51.012;-1.648;2023-03-15T10:28:04;100780.31;;;4.82;81.27
52693;BME280;68218;51.012;-1.648;2023-03-15T10:30:36;100780.06;;;4.97;81.69
52693;BME280;68218;51.012;-1.648;2023-03-15T10:33:22;100769.84;;;5.26;81.75
52693;BME280;68218;51.012;-1.648;2023-03-15T10:35:50;100771.31;;;5.22;80.72
52693;BME280;68218;51.012;-1.648;2023-03-15T10:38:17;100765.19;;;5.15;79.18
52693;BME280;68218;51.012;-1.648;2023-03-15T10:48:28;100753.50;;;5.41;79.45
52693;BME280;68218;51.012;-1.648;2023-03-15T10:50:54;100755.06;;;5.55;79.48
52693;BME280;68218;51.012;-1.648;2023-03-15T10:53:20;100758.00;;;5.47;79.43
52693;BME280;68218;51.012;-1.648;2023-03-15T10:55:46;100754.56;;;5.65;78.51
52693;BME280;68218;51.012;-1.648;2023-03-15T10:58:25;100755.38;;;5.40;78.82
52693;BME280;68218;51.012;-1.648;2023-03-15T11:00:59;100759.44;;;5.75;79.88
52693;BME280;68218;51.012;-1.648;2023-03-15T11:03:25;100757.50;;;5.57;78.70
52693;BME280;68218;51.012;-1.648;2023-03-15T11:05:57;100746.88;;;5.75;78.83
52693;BME280;68218;51.012;-1.648;2023-03-15T11:08:35;100756.47;;;6.15;77.09
52693;BME280;68218;51.012;-1.648;2023-03-15T11:11:02;100753.03;;;6.08;77.84
52693;BME280;68218;51.012;-1.648;2023-03-15T11:13:31;100748.22;;;5.91;79.00
52693;BME280;68218;51.012;-1.648;2023-03-15T11:16:06;100746.13;;;6.18;78.73
52693;BME280;68218;51.012;-1.648;2023-03-15T11:21:12;100742.75;;;6.05;77.36
52693;BME280;68218;51.012;-1.648;2023-03-15T11:23:41;100748.81;;;6.37;78.18
52693;BME280;68218;51.012;-1.648;2023-03-15T11:26:19;100743.03;;;6.40;77.70
52693;BME280;68218;51.012;-1.648;2023-03-15T11:28:49;100741.69;;;6.68;76.88
52693;BME280;68218;51.012;-1.648;2023-03-15T11:31:19;100738.56;;;6.52;75.00
52693;BME280;68218;51.012;-1.648;2023-03-15T11:36:36;100739.31;;;6.78;73.77
52693;BME280;68218;51.012;-1.648;2023-03-15T11:39:04;100735.53;;;6.67;73.77
52693;BME280;68218;51.012;-1.648;2023-03-15T11:44:02;100743.09;;;7.49;74.95
52693;BME280;68218;51.012;-1.648;2023-03-15T11:46:40;100741.97;;;7.69;70.79
52693;BME280;68218;51.012;-1.648;2023-03-15T11:49:18;100750.66;;;7.41;71.23
52693;BME280;68218;51.012;-1.648;2023-03-15T11:51:48;100740.94;;;7.28;72.79
52693;BME280;68218;51.012;-1.648;2023-03-15T11:54:14;100739.66;;;7.30;72.21
52693;BME280;68218;51.012;-1.648;2023-03-15T12:01:35;100729.56;;;7.14;73.51
52693;BME280;68218;51.012;-1.648;2023-03-15T12:04:44;100730.41;;;7.26;73.65
52693;BME280;68218;51.012;-1.648;2023-03-15T12:06:53;100723.31;;;7.20;74.36
52693;BME280;68218;51.012;-1.648;2023-03-15T12:11:59;100712.47;;;7.27;76.17
52693;BME280;68218;51.012;-1.648;2023-03-15T12:14:30;100728.53;;;7.15;77.57
52693;BME280;68218;51.012;-1.648;2023-03-15T12:20:00;100727.25;;;7.18;79.68
52693;BME280;68218;51.012;-1.648;2023-03-15T12:22:33;100720.88;;;7.30;81.36
52693;BME280;68218;51.012;-1.648;2023-03-15T12:25:52;100721.56;;;7.26;79.52
52693;BME280;68218;51.012;-1.648;2023-03-15T12:27:54;100710.91;;;7.19;80.96
52693;BME280;68218;51.012;-1.648;2023-03-15T12:32:54;100712.13;;;7.23;79.46
52693;BME280;68218;51.012;-1.648;2023-03-15T12:35:22;100701.56;;;7.40;81.77
52693;BME280;68218;51.012;-1.648;2023-03-15T12:37:51;100713.16;;;7.22;81.51
52693;BME280;68218;51.012;-1.648;2023-03-15T12:56:23;100694.13;;;7.66;80.37
52693;BME280;68218;51.012;-1.648;2023-03-15T12:58:53;100695.59;;;7.50;82.43
52693;BME280;68218;51.012;-1.648;2023-03-15T13:01:19;100682.13;;;7.26;82.05
52693;BME280;68218;51.012;-1.648;2023-03-15T13:03:53;100683.38;;;7.12;83.32
52693;BME280;68218;51.012;-1.648;2023-03-15T13:09:31;100668.06;;;7.43;83.88
52693;BME280;68218;51.012;-1.648;2023-03-15T13:12:33;100661.88;;;7.30;85.78
52693;BME280;68218;51.012;-1.648;2023-03-15T13:15:44;100654.16;;;7.34;86.44
52693;BME280;68218;51.012;-1.648;2023-03-15T13:18:23;100649.34;;;7.24;85.32
52693;BME280;68218;51.012;-1.648;2023-03-15T13:21:17;100637.97;;;6.99;85.15
52693;BME280;68218;51.012;-1.648;2023-03-15T13:23:49;100643.53;;;6.85;85.73
52693;BME280;68218;51.012;-1.648;2023-03-15T13:29:42;100650.44;;;6.93;85.42
52693;BME280;68218;51.012;-1.648;2023-03-15T13:31:36;100627.97;;;7.06;85.26
52693;BME280;68218;51.012;-1.648;2023-03-15T13:34:15;100629.75;;;7.12;84.55
52693;BME280;68218;51.012;-1.648;2023-03-15T13:36:53;100627.22;;;7.41;84.92
52693;BME280;68218;51.012;-1.648;2023-03-15T13:39:30;100624.44;;;7.47;84.12
52693;BME280;68218;51.012;-1.648;2023-03-15T13:42:04;100618.34;;;7.52;83.02
52693;BME280;68218;51.012;-1.648;2023-03-15T13:44:31;100608.53;;;7.22;83.97
52693;BME280;68218;51.012;-1.648;2023-03-15T13:46:57;100613.06;;;7.10;84.45
52693;BME280;68218;51.012;-1.648;2023-03-15T13:49:28;100595.94;;;7.23;85.71
52693;BME280;68218;51.012;-1.648;2023-03-15T13:51:54;100604.47;;;7.20;85.14
52693;BME280;68218;51.012;-1.648;2023-03-15T13:54:29;100600.31;;;6.93;85.09
52693;BME280;68218;51.012;-1.648;2023-03-15T13:57:15;100600.91;;;7.07;86.64
52693;BME280;68218;51.012;-1.648;2023-03-15T14:00:07;100598.22;;;6.96;86.41